Time;durP1;ratioP1;P1;durP2;ratioP2;P2;SDS_P1;SDS_P2;PMS_P1;PMS_P2;Temp;Humidity;BMP_temperature;BMP_pressure;BME280_temperature;BME280_humidity;BME280_pressure;Samples;Min_cycle;Max_cycle;Signal;HPM_P1;HPM_P2
2022/01/01 00:01:10;;;;;;;136.23;108.57;;;10.80;99.90;;;;;;5047961;28;20413;-78
2022/01/01 00:03:36;;;;;;;145.45;110.65;;;10.80;99.90;;;;;;5046909;28;20395;-78
2022/01/01 00:06:01;;;;;;;143.67;102.87;;;10.80;99.90;;;;;;5047123;28;20422;-77
2022/01/01 00:08:27;;;;;;;143.02;107.45;;;10.80;99.90;;;;;;5046474;28;20420;-77
2022/01/01 00:10:54;;;;;;;139.67;105.87;;;10.80;99.90;;;;;;5066495;28;20918;-78
2022/01/01 00:13:20;;;;;;;142.33;108.37;;;10.90;99.90;;;;;;5066179;28;20408;-78
2022/01/01 00:15:46;;;;;;;138.40;101.23;;;10.90;99.90;;;;;;5067072;28;20766;-77
2022/01/01 00:18:11;;;;;;;129.70;95.82;;;10.90;99.90;;;;;;5067801;28;20925;-77
2022/01/01 00:20:37;;;;;;;101.53;70.50;;;10.90;99.90;;;;;;5066068;28;20396;-77
2022/01/01 00:23:02;;;;;;;100.28;66.88;;;10.90;99.90;;;;;;5071637;28;20411;-77
2022/01/01 00:25:28;;;;;;;93.80;59.77;;;10.90;99.90;;;;;;5073283;28;20911;-78
2022/01/01 00:27:54;;;;;;;97.57;60.53;;;10.90;99.90;;;;;;5073269;28;20471;-77
2022/01/01 00:30:19;;;;;;;93.75;59.55;;;10.90;99.90;;;;;;5056274;28;20415;-78
2022/01/01 00:32:45;;;;;;;97.23;61.93;;;10.90;99.90;;;;;;5065130;28;20417;-77
2022/01/01 00:35:11;;;;;;;106.87;65.80;;;10.80;99.90;;;;;;5060961;28;20923;-74
2022/01/01 00:37:36;;;;;;;102.80;66.95;;;10.80;99.90;;;;;;5062004;28;20407;-74
2022/01/01 00:40:02;;;;;;;110.23;69.17;;;10.80;99.90;;;;;;5054730;28;20440;-74
2022/01/01 00:42:28;;;;;;;108.15;66.90;;;10.70;99.90;;;;;;5064380;28;20401;-75
2022/01/01 00:44:56;;;;;;;105.13;71.25;;;10.70;99.90;;;;;;5070345;28;20403;-76
2022/01/01 00:47:22;;;;;;;112.40;70.90;;;10.70;99.90;;;;;;5056395;28;20404;-77
2022/01/01 00:49:48;;;;;;;113.28;71.90;;;10.70;99.90;;;;;;5072627;28;20399;-78
2022/01/01 00:52:14;;;;;;;115.75;72.15;;;10.70;99.90;;;;;;5072815;28;20462;-77
2022/01/01 00:54:41;;;;;;;105.90;66.20;;;10.70;99.90;;;;;;5073090;28;20403;-77
2022/01/01 00:57:06;;;;;;;95.83;59.33;;;10.70;99.90;;;;;;5074204;28;20493;-77
2022/01/01 00:59:32;;;;;;;100.70;58.43;;;10.70;99.90;;;;;;5072431;28;20439;-77
2022/01/01 01:01:58;;;;;;;95.63;56.25;;;10.70;99.90;;;;;;5071154;28;20417;-78
2022/01/01 01:04:25;;;;;;;97.13;59.03;;;10.80;99.90;;;;;;5072011;28;20921;-78
2022/01/01 01:06:51;;;;;;;80.00;51.10;;;10.70;99.90;;;;;;5072932;28;20403;-78
2022/01/01 01:09:16;;;;;;;87.75;50.85;;;10.80;99.90;;;;;;5057191;28;20405;-78
2022/01/01 01:11:45;;;;;;;83.27;49.27;;;10.80;99.90;;;;;;5073767;28;20402;-78
2022/01/01 01:14:19;;;;;;;82.28;47.38;;;10.80;99.90;;;;;;5073638;28;20405;-78
2022/01/01 01:16:45;;;;;;;77.13;44.47;;;10.80;99.90;;;;;;5074229;28;20405;-78
2022/01/01 01:19:11;;;;;;;77.65;44.63;;;10.80;99.90;;;;;;5073703;28;20460;-78
2022/01/01 01:21:36;;;;;;;83.82;44.60;;;10.80;99.90;;;;;;5075227;28;20442;-78
2022/01/01 01:24:02;;;;;;;79.80;42.13;;;10.80;99.90;;;;;;5075150;28;21023;-78
2022/01/01 01:26:29;;;;;;;73.20;36.17;;;10.70;99.90;;;;;;5074751;28;20425;-78
2022/01/01 01:28:56;;;;;;;70.15;35.05;;;10.70;99.90;;;;;;5075311;28;20394;-78
2022/01/01 01:31:24;;;;;;;72.63;33.35;;;10.70;99.90;;;;;;5074725;28;20451;-76
2022/01/01 01:33:50;;;;;;;69.78;34.10;;;10.60;99.90;;;;;;5056129;28;20493;-77
2022/01/01 01:36:15;;;;;;;66.23;32.27;;;10.50;99.90;;;;;;5090318;28;20480;-78
2022/01/01 01:38:41;;;;;;;71.60;33.43;;;10.50;99.90;;;;;;5089997;28;21240;-78
2022/01/01 01:41:08;;;;;;;63.78;30.40;;;10.50;99.90;;;;;;5071882;28;20983;-78
2022/01/01 01:43:35;;;;;;;63.72;31.10;;;10.40;99.90;;;;;;5072284;28;20441;-78
2022/01/01 01:46:05;;;;;;;72.57;33.17;;;10.30;99.90;;;;;;5072913;28;20406;-78
2022/01/01 01:48:32;;;;;;;68.25;32.50;;;10.30;99.90;;;;;;5072736;28;20402;-77
2022/01/01 01:50:59;;;;;;;72.75;33.20;;;10.20;99.90;;;;;;5072562;28;20410;-78
2022/01/01 01:53:26;;;;;;;64.28;33.47;;;10.20;99.90;;;;;;5072758;28;21013;-78
2022/01/01 01:55:53;;;;;;;73.72;34.90;;;10.20;99.90;;;;;;5072484;28;20448;-78
2022/01/01 01:58:18;;;;;;;75.30;36.20;;;10.10;99.90;;;;;;5055949;28;20422;-78
2022/01/01 02:03:28;;;;;;;77.85;34.25;;;10.00;99.90;;;;;;5089922;28;20402;-77
2022/01/01 02:05:54;;;;;;;79.72;34.15;;;10.00;99.90;;;;;;5072206;28;20447;-78
2022/01/01 02:08:21;;;;;;;78.20;33.85;;;10.00;99.90;;;;;;5090198;28;20463;-78
2022/01/01 02:10:51;;;;;;;71.80;33.63;;;10.00;99.90;;;;;;5070917;28;20428;-78
2022/01/01 02:13:23;;;;;;;82.07;34.50;;;9.90;99.90;;;;;;5072047;28;20756;-78
2022/01/01 02:18:19;;;;;;;79.40;35.17;;;9.90;99.90;;;;;;5071117;28;20436;-78
2022/01/01 02:20:49;;;;;;;83.68;39.42;;;9.90;99.90;;;;;;5052100;28;20486;-78
2022/01/01 02:23:27;;;;;;;82.35;37.47;;;9.90;99.90;;;;;;5051846;28;20761;-78
2022/01/01 02:25:56;;;;;;;78.63;35.70;;;9.80;99.90;;;;;;5051996;28;20400;-78
2022/01/01 02:28:23;;;;;;;77.32;34.45;;;9.80;99.90;;;;;;5034947;28;20416;-78
2022/01/01 02:30:49;;;;;;;79.28;35.13;;;9.80;99.90;;;;;;5069488;28;20404;-78
2022/01/01 02:33:16;;;;;;;80.03;34.80;;;9.80;99.90;;;;;;5050624;28;20400;-78
2022/01/01 02:35:42;;;;;;;77.25;34.72;;;9.70;99.90;;;;;;5050891;28;20439;-78
2022/01/01 02:38:08;;;;;;;82.25;35.95;;;9.70;99.90;;;;;;5050748;28;20423;-78
2022/01/01 02:40:34;;;;;;;86.40;36.63;;;9.80;99.90;;;;;;5050823;28;20435;-78
2022/01/01 02:43:00;;;;;;;87.95;37.75;;;9.80;99.90;;;;;;5050650;28;20407;-78
2022/01/01 02:45:28;;;;;;;85.07;37.77;;;9.80;99.90;;;;;;5064286;28;20406;-78
2022/01/01 02:47:54;;;;;;;93.28;39.60;;;9.80;99.90;;;;;;5053358;28;20447;-78
2022/01/01 02:50:19;;;;;;;88.33;39.57;;;9.90;99.90;;;;;;5070216;28;20402;-78
2022/01/01 02:52:47;;;;;;;92.22;40.50;;;9.90;99.90;;;;;;5070668;28;20405;-78
2022/01/01 02:55:13;;;;;;;95.27;39.13;;;10.00;99.90;;;;;;5070211;28;20549;-78
2022/01/01 02:57:38;;;;;;;100.40;42.00;;;10.00;99.90;;;;;;5070016;28;20815;-78
2022/01/01 03:00:05;;;;;;;94.88;43.05;;;10.10;99.90;;;;;;5070459;28;20406;-78
2022/01/01 03:02:30;;;;;;;95.32;44.08;;;10.10;99.90;;;;;;5070398;28;20401;-78
2022/01/01 03:04:56;;;;;;;106.25;47.08;;;10.10;99.90;;;;;;5070522;28;21426;-78
2022/01/01 03:07:22;;;;;;;109.95;48.72;;;10.20;99.90;;;;;;5088053;28;20413;-76
2022/01/01 03:09:47;;;;;;;102.23;48.33;;;10.30;99.90;;;;;;5070449;28;20410;-76
2022/01/01 03:12:14;;;;;;;106.38;49.17;;;10.30;99.90;;;;;;5070334;28;20518;-76
2022/01/01 03:14:40;;;;;;;114.23;51.23;;;10.30;99.90;;;;;;5070328;28;20402;-76
2022/01/01 03:17:07;;;;;;;113.63;51.53;;;10.40;99.90;;;;;;5070489;28;20521;-76
2022/01/01 03:19:33;;;;;;;115.77;51.47;;;10.40;99.90;;;;;;5056367;28;20503;-76
2022/01/01 03:22:00;;;;;;;103.60;50.92;;;10.40;99.90;;;;;;5050046;28;20407;-76
2022/01/01 03:24:26;;;;;;;118.60;52.13;;;10.50;99.90;;;;;;5050412;28;20407;-76
2022/01/01 03:26:51;;;;;;;112.43;50.88;;;10.50;99.90;;;;;;5049929;28;20414;-76
2022/01/01 03:29:17;;;;;;;120.35;54.85;;;10.50;99.90;;;;;;5067372;28;20412;-76
2022/01/01 03:31:43;;;;;;;119.93;55.27;;;10.50;99.90;;;;;;5049506;28;20486;-76
2022/01/01 03:34:08;;;;;;;114.57;51.97;;;10.50;99.90;;;;;;5049866;28;20408;-76
2022/01/01 03:36:34;;;;;;;111.50;51.58;;;10.60;99.90;;;;;;5049997;28;20858;-76
2022/01/01 03:39:00;;;;;;;103.53;48.30;;;10.60;99.90;;;;;;5032328;28;20467;-76
2022/01/01 03:41:26;;;;;;;104.00;46.33;;;10.60;99.90;;;;;;5049687;28;20402;-76
2022/01/01 03:43:52;;;;;;;102.00;45.08;;;10.60;99.90;;;;;;5049836;28;20443;-76
2022/01/01 03:46:17;;;;;;;103.50;43.70;;;10.60;99.90;;;;;;5067410;28;20431;-76
2022/01/01 03:48:43;;;;;;;95.17;41.03;;;10.70;99.90;;;;;;5049468;28;20404;-76
2022/01/01 03:51:09;;;;;;;87.82;39.65;;;10.70;99.90;;;;;;5049566;28;20415;-76
2022/01/01 03:53:34;;;;;;;89.07;38.57;;;10.70;99.90;;;;;;5049637;28;20810;-76
2022/01/01 03:56:00;;;;;;;92.73;39.50;;;10.70;99.90;;;;;;5049277;28;20403;-76
2022/01/01 03:58:25;;;;;;;93.25;39.40;;;10.70;99.90;;;;;;5048829;28;20470;-76
2022/01/01 04:00:52;;;;;;;96.27;39.60;;;10.70;99.90;;;;;;5049534;28;20407;-76
2022/01/01 04:03:17;;;;;;;92.60;40.08;;;10.70;99.90;;;;;;5049336;28;20417;-76
2022/01/01 04:05:44;;;;;;;92.00;41.05;;;10.70;99.90;;;;;;5049221;28;20837;-76
2022/01/01 04:08:11;;;;;;;82.75;37.95;;;10.70;99.90;;;;;;5049209;28;20808;-76
2022/01/01 04:10:38;;;;;;;95.88;40.72;;;10.70;99.90;;;;;;5049338;28;20440;-76
2022/01/01 04:13:06;;;;;;;96.32;41.28;;;10.70;99.90;;;;;;5049379;28;20747;-76
2022/01/01 04:15:32;;;;;;;101.85;41.10;;;10.70;99.90;;;;;;5048491;28;20414;-76
2022/01/01 04:18:03;;;;;;;90.53;38.95;;;10.70;99.90;;;;;;5049108;28;20408;-76
2022/01/01 04:20:29;;;;;;;100.00;41.10;;;10.70;99.90;;;;;;5069544;28;20437;-76
2022/01/01 04:22:56;;;;;;;87.93;38.25;;;10.70;99.90;;;;;;5068971;28;20925;-76
2022/01/01 04:25:23;;;;;;;91.25;40.47;;;10.70;99.90;;;;;;5069462;28;20413;-76
2022/01/01 04:27:49;;;;;;;93.00;41.50;;;10.70;99.90;;;;;;5069635;28;20398;-76
2022/01/01 04:30:15;;;;;;;93.20;40.35;;;10.70;99.90;;;;;;5053499;28;20390;-76
2022/01/01 04:32:41;;;;;;;90.55;39.22;;;10.70;99.90;;;;;;5070183;28;20421;-76
2022/01/01 04:35:07;;;;;;;90.63;40.05;;;10.70;99.90;;;;;;5069589;28;20402;-76
2022/01/01 04:37:33;;;;;;;91.85;40.65;;;10.70;99.90;;;;;;5069937;28;20423;-76
2022/01/01 04:39:59;;;;;;;92.03;39.05;;;10.70;99.90;;;;;;5069127;28;20562;-76
2022/01/01 04:42:29;;;;;;;92.57;39.67;;;10.70;99.90;;;;;;5068606;28;20405;-76
2022/01/01 04:44:55;;;;;;;95.47;40.15;;;10.60;99.90;;;;;;5052503;28;20912;-76
2022/01/01 04:47:21;;;;;;;96.27;41.40;;;10.70;99.90;;;;;;5086836;28;20481;-76
2022/01/01 04:49:47;;;;;;;98.40;41.88;;;10.60;99.90;;;;;;5052992;28;20920;-76
2022/01/01 04:52:12;;;;;;;92.78;39.65;;;10.60;99.90;;;;;;5069941;28;20539;-76
2022/01/01 04:54:41;;;;;;;92.17;40.50;;;10.50;99.90;;;;;;5070199;28;20493;-76
2022/01/01 04:57:07;;;;;;;94.73;39.17;;;10.60;99.90;;;;;;5069426;28;20942;-76
2022/01/01 04:59:37;;;;;;;93.55;39.17;;;10.50;99.90;;;;;;5087755;28;20426;-76
2022/01/01 05:02:04;;;;;;;90.90;38.30;;;10.50;99.90;;;;;;5070181;28;20402;-76
2022/01/01 05:04:29;;;;;;;90.13;38.47;;;10.50;99.90;;;;;;5069523;28;20446;-76
2022/01/01 05:06:55;;;;;;;87.18;38.47;;;10.50;99.90;;;;;;5070067;28;20436;-76
2022/01/01 05:09:21;;;;;;;89.73;39.13;;;10.50;99.90;;;;;;5089217;28;20397;-76
2022/01/01 05:11:48;;;;;;;92.03;39.88;;;10.50;99.90;;;;;;5073138;28;20497;-76
2022/01/01 05:14:15;;;;;;;97.13;40.65;;;10.50;99.90;;;;;;5073409;28;20445;-76
2022/01/01 05:16:42;;;;;;;97.60;42.58;;;10.60;99.90;;;;;;5073456;28;20500;-76
2022/01/01 05:19:08;;;;;;;91.40;41.70;;;10.50;99.90;;;;;;5063130;28;20494;-76
2022/01/01 05:21:35;;;;;;;98.75;43.47;;;10.50;99.90;;;;;;5053263;28;20926;-76
2022/01/01 05:24:05;;;;;;;99.20;44.30;;;10.50;99.90;;;;;;5053205;28;20404;-76
2022/01/01 05:26:32;;;;;;;104.57;46.60;;;10.50;99.90;;;;;;5053100;28;20501;-76
2022/01/01 05:28:58;;;;;;;99.93;45.90;;;10.50;99.90;;;;;;5070860;28;20486;-76
2022/01/01 05:31:24;;;;;;;98.18;46.17;;;10.50;99.90;;;;;;5053244;28;20491;-76
2022/01/01 05:33:50;;;;;;;95.23;46.10;;;10.50;99.90;;;;;;5053009;28;20400;-76
2022/01/01 05:36:16;;;;;;;97.03;46.97;;;10.50;99.90;;;;;;5070491;28;20392;-76
2022/01/01 05:38:43;;;;;;;103.75;48.88;;;10.50;99.90;;;;;;5052992;28;20440;-76
2022/01/01 05:41:09;;;;;;;101.27;49.57;;;10.50;99.90;;;;;;5052985;28;20434;-76
2022/01/01 05:43:34;;;;;;;103.00;49.33;;;10.50;99.90;;;;;;5036013;28;20973;-76
2022/01/01 05:46:00;;;;;;;99.60;49.05;;;10.50;99.90;;;;;;5052950;28;20437;-76
2022/01/01 05:48:26;;;;;;;102.53;51.47;;;10.50;99.90;;;;;;5052650;28;21155;-76
2022/01/01 05:50:52;;;;;;;101.70;52.93;;;10.50;99.90;;;;;;5052783;28;20411;-76
2022/01/01 05:53:18;;;;;;;109.27;56.23;;;10.50;99.90;;;;;;5052359;28;20469;-76
2022/01/01 05:55:44;;;;;;;116.30;58.58;;;10.50;99.90;;;;;;5052543;28;20937;-76
2022/01/01 05:58:10;;;;;;;115.00;60.80;;;10.50;99.90;;;;;;5052442;28;20458;-76
2022/01/01 06:00:36;;;;;;;123.25;65.95;;;10.50;99.90;;;;;;5052938;28;20439;-76
2022/01/01 06:03:02;;;;;;;123.82;66.78;;;10.50;99.90;;;;;;5052520;28;20411;-76
2022/01/01 06:05:28;;;;;;;112.15;64.85;;;10.60;99.90;;;;;;5051766;28;20461;-76
2022/01/01 06:07:55;;;;;;;128.43;68.53;;;10.60;99.90;;;;;;5049150;28;20484;-76
2022/01/01 06:10:21;;;;;;;129.65;69.97;;;10.60;99.90;;;;;;5052286;28;20491;-76
2022/01/01 06:12:47;;;;;;;134.00;75.10;;;10.60;99.90;;;;;;5052049;28;20952;-76
2022/01/01 06:15:13;;;;;;;140.73;75.28;;;10.60;99.90;;;;;;5052239;28;20520;-76
2022/01/01 06:17:38;;;;;;;134.60;73.10;;;10.60;99.90;;;;;;5051941;28;20752;-76
2022/01/01 06:20:05;;;;;;;130.57;72.80;;;10.60;99.90;;;;;;5052417;28;20433;-76
2022/01/01 06:22:30;;;;;;;134.32;76.03;;;10.60;99.90;;;;;;5090030;28;20397;-76
2022/01/01 06:24:56;;;;;;;137.85;75.80;;;10.60;99.90;;;;;;5072454;28;20463;-77
2022/01/01 06:27:22;;;;;;;131.57;70.20;;;10.60;99.90;;;;;;5072045;28;20417;-76
2022/01/01 06:29:47;;;;;;;131.88;72.45;;;10.60;99.90;;;;;;5071756;28;20448;-76
2022/01/01 06:32:13;;;;;;;126.47;70.53;;;10.60;99.90;;;;;;5071558;28;20406;-76
2022/01/01 06:34:39;;;;;;;127.93;65.83;;;10.70;99.90;;;;;;5055314;28;20390;-76
2022/01/01 06:37:05;;;;;;;122.75;65.00;;;10.60;99.90;;;;;;5071674;28;20440;-76
2022/01/01 06:39:31;;;;;;;117.28;64.18;;;10.60;99.90;;;;;;5071524;28;20453;-76
2022/01/01 06:41:56;;;;;;;129.27;65.93;;;10.70;99.90;;;;;;5055594;28;20441;-76
2022/01/01 06:44:22;;;;;;;128.87;63.70;;;10.60;99.90;;;;;;5072028;28;20394;-76
2022/01/01 06:46:47;;;;;;;125.28;61.25;;;10.60;99.90;;;;;;5071543;28;20946;-76
2022/01/01 06:49:14;;;;;;;123.67;59.80;;;10.60;99.90;;;;;;5054644;28;20402;-76
2022/01/01 06:51:40;;;;;;;116.80;55.33;;;10.60;99.90;;;;;;5071544;28;20903;-76
2022/01/01 06:54:05;;;;;;;118.25;54.38;;;10.60;99.90;;;;;;5054682;28;20409;-76
2022/01/01 06:56:31;;;;;;;116.37;53.10;;;10.60;99.90;;;;;;5071525;28;20437;-76
2022/01/01 06:58:57;;;;;;;120.47;54.00;;;10.60;99.90;;;;;;5089357;28;20515;-76
2022/01/01 07:01:23;;;;;;;127.38;56.88;;;10.60;99.90;;;;;;5071034;28;20398;-76
2022/01/01 07:03:48;;;;;;;126.30;54.53;;;10.60;99.90;;;;;;5071621;28;20471;-76
2022/01/01 07:06:14;;;;;;;136.13;55.45;;;10.60;99.90;;;;;;5071515;28;20912;-76
2022/01/01 07:08:39;;;;;;;139.88;56.78;;;10.60;99.90;;;;;;5071073;28;20406;-76
2022/01/01 07:11:05;;;;;;;133.60;54.93;;;10.60;99.90;;;;;;5071200;28;20445;-76
2022/01/01 07:13:31;;;;;;;131.80;55.13;;;10.60;99.90;;;;;;5054107;28;20995;-76
2022/01/01 07:15:57;;;;;;;137.50;53.45;;;10.60;99.90;;;;;;5071138;28;20396;-76
2022/01/01 07:18:22;;;;;;;132.27;54.27;;;10.60;99.90;;;;;;5050566;28;20491;-76
2022/01/01 07:20:48;;;;;;;138.48;53.88;;;10.60;99.90;;;;;;5050977;28;20404;-76
2022/01/01 07:23:13;;;;;;;136.57;52.80;;;10.60;99.90;;;;;;5068920;28;20893;-76
2022/01/01 07:25:39;;;;;;;138.05;51.83;;;10.50;99.90;;;;;;5050855;28;20483;-76
2022/01/01 07:28:05;;;;;;;125.88;50.33;;;10.50;99.90;;;;;;5050957;28;20909;-76
2022/01/01 07:30:30;;;;;;;131.33;50.03;;;10.60;99.90;;;;;;5050643;28;21072;-76
2022/01/01 07:32:56;;;;;;;128.65;46.80;;;10.60;99.90;;;;;;5049869;28;20404;-76
2022/01/01 07:35:22;;;;;;;130.00;48.53;;;10.60;99.90;;;;;;5050401;28;20412;-76
2022/01/01 07:37:48;;;;;;;134.43;49.87;;;10.60;99.90;;;;;;5050661;28;20431;-76
2022/01/01 07:40:16;;;;;;;121.60;46.85;;;10.60;99.90;;;;;;5050383;28;20407;-76
2022/01/01 07:42:43;;;;;;;115.15;45.10;;;10.60;99.90;;;;;;5050647;28;20912;-76
2022/01/01 07:45:09;;;;;;;116.20;44.25;;;10.60;99.90;;;;;;5033794;28;20770;-76
2022/01/01 07:47:35;;;;;;;106.88;41.78;;;10.60;99.90;;;;;;5050871;28;20879;-77
2022/01/01 07:50:01;;;;;;;104.43;40.80;;;10.60;99.90;;;;;;5050588;28;20411;-77
2022/01/01 07:52:27;;;;;;;106.57;40.17;;;10.60;99.90;;;;;;5050108;28;20400;-77
2022/01/01 07:54:52;;;;;;;107.20;40.00;;;10.60;99.90;;;;;;5068167;28;20404;-77
2022/01/01 07:57:18;;;;;;;105.63;40.92;;;10.60;99.90;;;;;;5050019;28;20934;-77
2022/01/01 07:59:44;;;;;;;112.63;40.60;;;10.60;99.90;;;;;;5066845;28;20470;-76
2022/01/01 08:02:09;;;;;;;104.18;39.05;;;10.70;99.90;;;;;;5067444;28;20441;-77
2022/01/01 08:04:35;;;;;;;96.87;36.57;;;10.70;99.90;;;;;;5049250;28;20403;-77
2022/01/01 08:07:01;;;;;;;96.20;36.13;;;10.70;99.90;;;;;;5049471;28;20408;-77
2022/01/01 08:09:28;;;;;;;89.77;35.07;;;10.70;99.90;;;;;;5049061;28;20451;-77
2022/01/01 08:11:54;;;;;;;92.10;36.58;;;10.70;99.90;;;;;;5049313;28;20419;-77
2022/01/01 08:14:21;;;;;;;101.25;39.58;;;10.70;99.90;;;;;;5048867;28;20413;-77
2022/01/01 08:17:13;;;;;;;106.20;39.83;;;10.70;99.90;;;;;;5049568;28;20940;-77
2022/01/01 08:19:39;;;;;;;103.37;40.97;;;10.70;99.90;;;;;;5061214;28;20429;-77
2022/01/01 08:22:04;;;;;;;103.83;40.63;;;10.70;99.90;;;;;;5070007;28;20410;-77
2022/01/01 08:24:30;;;;;;;110.40;41.63;;;10.80;99.90;;;;;;5069585;28;20459;-76
2022/01/01 08:26:56;;;;;;;107.93;42.90;;;10.80;99.90;;;;;;5070026;28;20753;-77
2022/01/01 08:29:21;;;;;;;109.77;42.97;;;10.80;99.90;;;;;;5069718;28;20457;-77
2022/01/01 08:31:47;;;;;;;119.97;44.83;;;10.80;99.90;;;;;;5070089;28;20402;-77
2022/01/01 08:34:13;;;;;;;115.80;44.20;;;10.80;99.90;;;;;;5070038;28;20409;-77
2022/01/01 08:36:38;;;;;;;110.07;43.77;;;10.90;99.90;;;;;;5069997;28;20394;-77
2022/01/01 08:39:06;;;;;;;110.75;42.83;;;10.90;99.90;;;;;;5069680;28;20967;-77
2022/01/01 08:41:32;;;;;;;115.57;44.63;;;10.90;99.90;;;;;;5069975;28;20402;-77
2022/01/01 08:43:58;;;;;;;113.43;42.80;;;10.90;99.90;;;;;;5072558;28;20413;-77
2022/01/01 08:46:23;;;;;;;127.65;45.33;;;10.90;99.90;;;;;;5073639;28;20763;-77
2022/01/01 08:48:49;;;;;;;116.30;42.97;;;10.90;99.90;;;;;;5073684;28;20405;-77
2022/01/01 08:51:19;;;;;;;109.93;43.13;;;11.00;99.90;;;;;;5091743;28;20445;-77
2022/01/01 08:53:46;;;;;;;113.65;44.42;;;11.00;99.90;;;;;;5073442;28;20414;-77
2022/01/01 08:56:12;;;;;;;106.72;43.50;;;11.00;99.90;;;;;;5072517;28;20927;-78
2022/01/01 08:58:39;;;;;;;124.18;46.20;;;11.00;99.90;;;;;;5087725;28;20414;-79
2022/01/01 09:01:06;;;;;;;113.90;43.90;;;11.00;99.90;;;;;;5072224;28;20401;-79
2022/01/01 09:03:34;;;;;;;134.35;48.38;;;11.00;99.90;;;;;;5070912;28;20490;-79
2022/01/01 09:06:00;;;;;;;130.32;47.88;;;11.00;99.90;;;;;;5072300;28;20531;-79
2022/01/01 09:08:26;;;;;;;133.88;50.47;;;11.10;99.90;;;;;;5089871;28;20625;-79
2022/01/01 09:10:51;;;;;;;129.70;49.85;;;11.10;99.90;;;;;;5072433;28;20410;-79
2022/01/01 09:13:17;;;;;;;132.60;50.30;;;11.00;99.90;;;;;;5072364;28;20428;-79
2022/01/01 09:15:43;;;;;;;133.90;49.47;;;11.00;99.90;;;;;;5071847;28;20397;-79
2022/01/01 09:18:08;;;;;;;132.73;50.85;;;11.00;99.90;;;;;;5072579;28;20406;-79
2022/01/01 09:20:34;;;;;;;130.87;48.80;;;11.00;99.90;;;;;;5054920;28;20406;-79
2022/01/01 09:23:00;;;;;;;127.85;49.47;;;11.10;99.90;;;;;;5072659;28;20497;-79
2022/01/01 09:25:25;;;;;;;128.97;51.43;;;11.10;99.90;;;;;;5072970;28;20398;-79
2022/01/01 09:27:51;;;;;;;117.10;47.97;;;11.10;99.90;;;;;;5071895;28;20410;-79
2022/01/01 09:30:17;;;;;;;124.07;48.72;;;11.10;99.90;;;;;;5071886;28;20513;-79
2022/01/01 09:32:42;;;;;;;116.47;48.47;;;11.20;99.90;;;;;;5071605;28;20888;-79
2022/01/01 09:35:08;;;;;;;121.88;47.95;;;11.20;99.90;;;;;;5071639;28;20413;-79
2022/01/01 09:37:34;;;;;;;114.78;49.28;;;11.20;99.90;;;;;;5071801;28;20406;-79
2022/01/01 09:40:03;;;;;;;107.77;47.30;;;11.30;99.90;;;;;;5071082;28;20479;-80
2022/01/01 09:42:30;;;;;;;116.43;49.72;;;11.30;99.90;;;;;;5071887;28;20417;-79
2022/01/01 09:44:57;;;;;;;113.15;49.42;;;11.30;99.90;;;;;;5089527;28;20896;-80
2022/01/01 09:47:23;;;;;;;117.03;50.97;;;11.40;99.90;;;;;;5071738;28;20920;-77
2022/01/01 09:49:49;;;;;;;109.57;50.05;;;11.40;99.90;;;;;;5073254;28;20484;-77
2022/01/01 09:52:16;;;;;;;106.95;49.45;;;11.40;99.90;;;;;;5069187;28;20534;-74
2022/01/01 09:54:42;;;;;;;98.67;45.70;;;11.50;99.90;;;;;;5069533;28;20494;-73
2022/01/01 09:57:10;;;;;;;98.65;48.10;;;11.50;99.90;;;;;;5071360;28;20496;-74
2022/01/01 09:59:37;;;;;;;95.35;47.00;;;11.60;99.90;;;;;;5069464;28;20501;-75
2022/01/01 10:02:03;;;;;;;89.45;45.15;;;11.60;99.90;;;;;;5080200;28;21433;-74
2022/01/01 10:04:43;;;;;;;95.13;45.80;;;11.60;99.90;;;;;;5089687;28;20399;-74
2022/01/01 10:07:12;;;;;;;89.40;44.45;;;11.70;99.90;;;;;;5085785;28;20769;-75
2022/01/01 10:09:38;;;;;;;86.30;43.22;;;11.70;99.90;;;;;;5080021;28;20516;-74
2022/01/01 10:12:06;;;;;;;81.90;42.78;;;11.70;99.90;;;;;;5064256;28;20501;-74
2022/01/01 10:14:41;;;;;;;85.18;44.00;;;11.80;99.90;;;;;;5066964;28;20414;-75
2022/01/01 10:17:18;;;;;;;78.43;44.05;;;11.90;99.90;;;;;;5074352;28;20424;-75
2022/01/01 10:19:45;;;;;;;77.25;41.95;;;11.90;99.90;;;;;;5082270;28;21002;-75
2022/01/01 10:22:13;;;;;;;73.68;41.05;;;12.00;99.90;;;;;;5068146;28;20411;-75
2022/01/01 10:27:46;;;;;;;69.97;40.83;;;12.00;99.90;;;;;;5069680;28;20414;-75
2022/01/01 10:30:41;;;;;;;64.70;38.17;;;12.00;99.90;;;;;;5085704;28;20909;-76
2022/01/01 10:33:11;;;;;;;64.90;38.40;;;12.00;99.90;;;;;;5069610;28;20442;-76
2022/01/01 10:35:38;;;;;;;67.53;37.42;;;12.10;99.90;;;;;;5071450;28;20428;-76
2022/01/01 10:38:12;;;;;;;57.70;35.05;;;12.10;99.90;;;;;;5089340;28;20828;-76
2022/01/01 10:40:38;;;;;;;60.17;35.35;;;12.10;99.90;;;;;;5071364;28;20792;-75
2022/01/01 10:43:04;;;;;;;63.28;36.00;;;12.20;99.90;;;;;;5071631;28;20405;-76
2022/01/01 10:45:41;;;;;;;59.55;35.13;;;12.20;99.90;;;;;;5082095;28;20418;-76
2022/01/01 10:48:20;;;;;;;61.47;36.75;;;12.20;99.90;;;;;;5071801;28;20406;-76
2022/01/01 10:50:46;;;;;;;60.05;35.60;;;12.30;99.90;;;;;;5067440;28;20416;-76
2022/01/01 10:53:24;;;;;;;73.72;44.15;;;12.20;99.90;;;;;;5069109;28;20395;-76
2022/01/01 10:55:54;;;;;;;60.50;36.83;;;12.30;99.90;;;;;;5076808;28;20404;-76
2022/01/01 10:58:26;;;;;;;61.33;35.40;;;12.30;99.90;;;;;;5068393;28;20480;-76
2022/01/01 11:00:57;;;;;;;56.13;34.60;;;12.30;99.90;;;;;;5073480;28;20449;-76
2022/01/01 11:03:24;;;;;;;56.35;33.67;;;12.30;99.90;;;;;;5069336;28;20438;-76
2022/01/01 11:05:51;;;;;;;54.00;32.60;;;12.30;99.90;;;;;;5087708;28;20408;-76
2022/01/01 11:08:18;;;;;;;55.63;31.45;;;12.30;99.90;;;;;;5069292;28;20516;-76
2022/01/01 11:10:43;;;;;;;51.45;31.05;;;12.30;99.90;;;;;;5076687;28;20449;-76
2022/01/01 11:13:10;;;;;;;51.85;31.02;;;12.30;99.90;;;;;;5087843;28;20860;-76
2022/01/01 11:15:35;;;;;;;52.38;31.23;;;12.30;99.90;;;;;;5069379;28;20406;-76
2022/01/01 11:18:02;;;;;;;53.38;31.58;;;12.30;99.90;;;;;;5066908;28;20415;-76
2022/01/01 11:20:33;;;;;;;50.25;30.90;;;12.30;99.90;;;;;;5087161;28;20429;-76
2022/01/01 11:23:03;;;;;;;54.80;31.27;;;12.30;99.90;;;;;;5087388;28;20501;-76
2022/01/01 11:25:29;;;;;;;52.33;31.67;;;12.30;99.90;;;;;;5069035;28;20409;-76
2022/01/01 11:27:58;;;;;;;51.35;29.95;;;12.30;99.90;;;;;;5068786;28;20466;-75
2022/01/01 11:30:28;;;;;;;47.63;29.50;;;12.30;99.90;;;;;;5067237;28;20845;-75
2022/01/01 11:33:16;;;;;;;49.23;28.17;;;12.30;99.90;;;;;;5067569;28;20426;-74
2022/01/01 11:35:50;;;;;;;40.70;26.48;;;12.30;99.90;;;;;;5069270;28;20406;-77
2022/01/01 11:38:17;;;;;;;43.13;26.75;;;12.30;99.90;;;;;;5087525;28;20455;-77
2022/01/01 11:40:56;;;;;;;45.65;26.55;;;12.30;99.90;;;;;;5069885;28;20398;-77
2022/01/01 11:43:37;;;;;;;44.90;25.97;;;12.30;99.90;;;;;;5069360;28;20977;-78
2022/01/01 11:46:10;;;;;;;41.83;24.83;;;12.30;99.90;;;;;;5069574;28;20437;-78
2022/01/01 11:48:38;;;;;;;35.58;23.77;;;12.30;99.90;;;;;;5070113;28;20430;-78
2022/01/01 11:51:35;;;;;;;36.08;22.73;;;12.40;99.90;;;;;;5069936;28;20414;-78
2022/01/01 11:54:07;;;;;;;35.95;22.27;;;12.40;99.90;;;;;;5053216;28;20494;-78
2022/01/01 11:56:56;;;;;;;34.53;21.58;;;12.40;99.90;;;;;;5069216;28;20471;-78
2022/01/01 11:59:37;;;;;;;32.63;19.20;;;12.50;99.90;;;;;;5069226;28;20470;-78
2022/01/01 12:02:17;;;;;;;33.42;19.67;;;12.50;99.90;;;;;;5069233;28;20424;-78
2022/01/01 12:04:49;;;;;;;36.30;20.87;;;12.50;99.90;;;;;;5069669;28;20879;-78
2022/01/01 12:07:21;;;;;;;34.03;19.35;;;12.50;99.90;;;;;;5069426;28;20489;-78
2022/01/01 12:10:02;;;;;;;33.07;19.23;;;12.50;99.90;;;;;;5069306;28;20493;-78
2022/01/01 12:12:38;;;;;;;32.53;18.90;;;12.50;99.90;;;;;;5069154;28;20414;-78
2022/01/01 12:15:06;;;;;;;30.58;17.95;;;12.50;99.90;;;;;;5087506;28;20414;-78
2022/01/01 12:17:49;;;;;;;31.50;16.73;;;12.50;99.90;;;;;;5068257;28;20417;-78
2022/01/01 12:20:16;;;;;;;28.40;16.20;;;12.50;99.90;;;;;;5049807;28;20435;-78
2022/01/01 12:22:46;;;;;;;24.45;15.68;;;12.50;99.90;;;;;;5049443;28;20408;-78
2022/01/01 12:25:26;;;;;;;24.25;14.57;;;12.50;99.90;;;;;;5049037;28;20466;-78
2022/01/01 12:27:53;;;;;;;27.38;14.85;;;12.50;99.90;;;;;;5066945;28;20461;-78
2022/01/01 12:30:36;;;;;;;25.45;13.90;;;12.50;99.90;;;;;;5048924;28;20403;-78
2022/01/01 12:33:02;;;;;;;22.38;12.27;;;12.50;99.90;;;;;;5048904;28;20510;-78